Time;durP1;ratioP1;P1;durP2;ratioP2;P2;SDS_P1;SDS_P2;PMS_P1;PMS_P2;Temp;Humidity;BMP_temperature;BMP_pressure;BME280_temperature;BME280_humidity;BME280_pressure;Samples;Min_cycle;Max_cycle;Signal;HPM_P1;HPM_P2
2023/11/22 00:01:22;;;;;;;11.40;6.90;;;;;;;-9.12;100.00;100591.58;109543;1251;74887;-54
2023/11/22 00:03:50;;;;;;;11.00;6.10;;;;;;;-9.16;100.00;100583.82;109503;1250;67005;-55
2023/11/22 00:06:20;;;;;;;12.90;7.60;;;;;;;-9.20;100.00;100583.61;109412;1252;72538;-55
2023/11/22 00:08:48;;;;;;;12.70;5.90;;;;;;;-9.20;100.00;100578.41;109424;1250;59682;-56
2023/11/22 00:11:15;;;;;;;11.00;5.90;;;;;;;-9.18;100.00;100580.50;109471;1250;58972;-54
2023/11/22 00:13:43;;;;;;;15.80;7.00;;;;;;;-9.15;100.00;100580.90;109395;1250;73426;-56
2023/11/22 00:16:11;;;;;;;10.10;5.70;;;;;;;-9.12;100.00;100578.95;109476;1251;67704;-54
2023/11/22 00:18:39;;;;;;;10.90;5.70;;;;;;;-9.07;100.00;100584.04;109465;1251;72710;-54
2023/11/22 00:21:06;;;;;;;12.20;6.20;;;;;;;-9.06;100.00;100588.19;109454;1251;59675;-54
2023/11/22 00:23:34;;;;;;;11.90;6.90;;;;;;;-9.04;100.00;100594.21;109486;1254;59016;-54
2023/11/22 00:26:02;;;;;;;10.60;5.70;;;;;;;-9.01;100.00;100596.95;109406;1251;74742;-54
2023/11/22 00:28:30;;;;;;;10.10;6.00;;;;;;;-8.97;100.00;100594.46;109466;1251;65468;-54
2023/11/22 00:30:58;;;;;;;12.50;6.30;;;;;;;-8.95;100.00;100591.88;109408;1253;71539;-54
2023/11/22 00:33:25;;;;;;;17.70;8.80;;;;;;;-8.93;100.00;100587.61;109446;1251;61018;-54
2023/11/22 00:35:56;;;;;;;13.60;6.20;;;;;;;-8.93;100.00;100581.70;109436;1251;58887;-55
2023/11/22 00:38:24;;;;;;;13.90;7.30;;;;;;;-8.93;100.00;100585.40;109455;1254;73465;-55
2023/11/22 00:40:52;;;;;;;15.10;7.10;;;;;;;-8.94;100.00;100585.27;109435;1251;65733;-54
2023/11/22 00:43:20;;;;;;;10.60;5.70;;;;;;;-8.95;100.00;100588.52;109445;1253;70788;-54
2023/11/22 00:45:48;;;;;;;9.20;5.80;;;;;;;-8.96;100.00;100594.42;109372;1251;59664;-57
2023/11/22 00:48:15;;;;;;;10.90;6.30;;;;;;;-8.96;100.00;100589.57;109493;1253;59054;-54
2023/11/22 00:50:43;;;;;;;10.20;5.90;;;;;;;-8.96;100.00;100597.81;109423;1251;73588;-55
2023/11/22 00:53:10;;;;;;;10.70;6.30;;;;;;;-8.96;100.00;100601.17;109234;1251;64758;-55
2023/11/22 00:55:38;;;;;;;11.50;6.00;;;;;;;-8.98;100.00;100592.81;109425;1251;72657;-57
2023/11/22 00:58:07;;;;;;;11.80;5.80;;;;;;;-9.00;100.00;100588.03;109407;1251;60187;-55
2023/11/22 01:00:35;;;;;;;12.40;6.30;;;;;;;-9.02;100.00;100574.61;109439;1251;60323;-55
2023/11/22 01:03:04;;;;;;;12.70;6.70;;;;;;;-9.02;100.00;100558.95;109316;1251;74743;-55
2023/11/22 01:05:32;;;;;;;10.80;5.40;;;;;;;-9.02;100.00;100561.46;109417;1256;67889;-58
2023/11/22 01:08:00;;;;;;;11.80;6.10;;;;;;;-9.02;100.00;100557.09;109453;1253;72686;-56
2023/11/22 01:10:28;;;;;;;16.60;7.60;;;;;;;-9.03;100.00;100555.63;109455;1251;59665;-56
2023/11/22 01:12:56;;;;;;;11.20;5.80;;;;;;;-9.04;100.00;100545.40;109436;1251;60162;-56
2023/11/22 01:15:24;;;;;;;13.50;6.10;;;;;;;-9.05;100.00;100553.83;109414;1250;74670;-57
2023/11/22 01:17:52;;;;;;;11.00;6.50;;;;;;;-9.03;100.00;100561.52;109451;1251;67065;-57
2023/11/22 01:20:22;;;;;;;10.90;6.70;;;;;;;-9.05;100.00;100560.21;109410;1251;72772;-56
2023/11/22 01:22:50;;;;;;;11.00;6.10;;;;;;;-9.07;100.00;100555.05;109390;1251;60938;-57
2023/11/22 01:25:19;;;;;;;9.20;5.50;;;;;;;-9.09;100.00;100548.40;109465;1251;60321;-56
2023/11/22 01:27:47;;;;;;;11.20;5.90;;;;;;;-9.07;100.00;100540.09;109445;1251;74083;-56
2023/11/22 01:30:14;;;;;;;12.00;6.80;;;;;;;-9.04;100.00;100548.58;109419;1256;66982;-56
2023/11/22 01:32:44;;;;;;;11.80;6.80;;;;;;;-9.04;100.00;100544.03;109406;1251;72683;-56
2023/11/22 01:35:12;;;;;;;11.10;6.40;;;;;;;-9.05;100.00;100553.31;109480;1251;59730;-57
2023/11/22 01:37:40;;;;;;;11.90;6.10;;;;;;;-9.07;100.00;100573.22;109286;1251;60070;-56
2023/11/22 01:40:08;;;;;;;12.20;5.80;;;;;;;-9.09;100.00;100577.52;109449;1251;73494;-56
2023/11/22 01:42:37;;;;;;;9.90;5.60;;;;;;;-9.11;100.00;100577.73;109439;1251;66994;-56
2023/11/22 01:45:06;;;;;;;10.60;5.80;;;;;;;-9.11;100.00;100568.48;109419;1251;72574;-57
2023/11/22 01:47:34;;;;;;;11.40;6.10;;;;;;;-9.11;100.00;100564.78;109497;1251;59675;-57
2023/11/22 01:50:11;;;;;;;10.90;6.20;;;;;;;-9.13;100.00;100566.04;109407;1251;59297;-56
2023/11/22 01:52:39;;;;;;;11.60;6.60;;;;;;;-9.14;100.00;100566.92;109267;1250;73439;-56
2023/11/22 01:55:09;;;;;;;10.70;5.70;;;;;;;-9.13;100.00;100573.63;109395;1251;67455;-56
2023/11/22 01:57:36;;;;;;;10.30;5.80;;;;;;;-9.14;100.00;100575.81;109402;1254;71461;-56
2023/11/22 02:00:14;;;;;;;10.90;6.30;;;;;;;-9.13;100.00;100579.35;109346;1251;59641;-56
2023/11/22 02:02:42;;;;;;;12.10;6.70;;;;;;;-9.14;100.00;100569.94;109258;1251;60527;-56
2023/11/22 02:05:11;;;;;;;13.50;6.10;;;;;;;-9.15;100.00;100567.77;109298;1251;74697;-56
2023/11/22 02:07:39;;;;;;;9.70;5.70;;;;;;;-9.15;100.00;100570.15;109526;1251;65521;-54
2023/11/22 02:10:07;;;;;;;11.10;6.50;;;;;;;-9.17;100.00;100565.84;109296;1251;71425;-54
2023/11/22 02:12:35;;;;;;;10.40;6.70;;;;;;;-9.19;100.00;100560.67;109348;1253;59566;-58
2023/11/22 02:15:03;;;;;;;11.10;6.30;;;;;;;-9.18;100.00;100560.80;109401;1251;58932;-55
2023/11/22 02:17:31;;;;;;;11.20;6.00;;;;;;;-9.16;100.00;100580.13;109475;1251;73913;-55
2023/11/22 02:19:59;;;;;;;11.00;6.80;;;;;;;-9.16;100.00;100585.16;109425;1251;65662;-54
2023/11/22 02:22:27;;;;;;;11.60;6.10;;;;;;;-9.17;100.00;100591.07;109437;1251;72637;-55
2023/11/22 02:24:54;;;;;;;9.40;5.50;;;;;;;-9.16;100.00;100613.93;109355;1251;61524;-55
2023/11/22 02:27:22;;;;;;;11.30;6.00;;;;;;;-9.15;100.00;100624.34;109482;1251;59137;-55
2023/11/22 02:29:50;;;;;;;11.60;6.70;;;;;;;-9.13;100.00;100617.23;109399;1251;73709;-54
2023/11/22 02:32:18;;;;;;;11.30;6.50;;;;;;;-9.13;100.00;100621.77;109404;1251;66192;-58
2023/11/22 02:34:46;;;;;;;8.40;4.70;;;;;;;-9.13;100.00;100633.05;109444;1251;73293;-54
2023/11/22 02:37:13;;;;;;;11.50;5.10;;;;;;;-9.14;100.00;100633.73;109417;1252;59892;-54
2023/11/22 02:39:48;;;;;;;12.10;5.70;;;;;;;-9.14;100.00;100636.92;109311;1251;60046;-54
2023/11/22 02:42:16;;;;;;;10.20;5.10;;;;;;;-9.16;100.00;100636.66;109328;1250;74743;-58
2023/11/22 02:44:43;;;;;;;12.10;6.30;;;;;;;-9.17;100.00;100636.52;109417;1251;66116;-56
2023/11/22 02:47:11;;;;;;;12.90;6.00;;;;;;;-9.18;100.00;100642.11;109404;1251;72654;-57
2023/11/22 02:49:39;;;;;;;17.00;6.80;;;;;;;-9.20;100.00;100637.13;109430;1251;59661;-56
2023/11/22 02:52:06;;;;;;;11.80;6.90;;;;;;;-9.21;100.00;100647.60;109426;1251;59174;-56
2023/11/22 02:54:34;;;;;;;11.80;6.50;;;;;;;-9.25;100.00;100651.92;109377;1251;75119;-56
2023/11/22 02:57:02;;;;;;;16.10;7.00;;;;;;;-9.31;100.00;100651.12;109299;1251;65794;-56
2023/11/22 02:59:29;;;;;;;12.20;7.70;;;;;;;-9.38;100.00;100652.66;109279;1251;72396;-56
2023/11/22 03:01:57;;;;;;;13.10;7.20;;;;;;;-9.45;100.00;100651.89;109367;1250;59833;-54
2023/11/22 03:04:25;;;;;;;14.20;6.90;;;;;;;-9.52;100.00;100656.30;109395;1251;59035;-55
2023/11/22 03:06:52;;;;;;;13.80;6.60;;;;;;;-9.61;100.00;100657.55;109422;1253;73447;-54
2023/11/22 03:09:22;;;;;;;12.10;6.70;;;;;;;-9.71;100.00;100651.28;109431;1251;67142;-54
2023/11/22 03:11:50;;;;;;;11.00;7.10;;;;;;;-9.79;100.00;100658.27;109401;1251;71582;-54
2023/11/22 03:14:19;;;;;;;12.80;6.20;;;;;;;-9.87;100.00;100652.42;109357;1251;60938;-55
2023/11/22 03:16:46;;;;;;;12.00;6.70;;;;;;;-9.94;100.00;100657.85;109411;1251;60181;-54
2023/11/22 03:19:14;;;;;;;12.30;6.40;;;;;;;-9.99;100.00;100659.17;109457;1251;73512;-54
2023/11/22 03:21:43;;;;;;;16.20;7.50;;;;;;;-10.01;100.00;100660.73;109467;1251;65608;-54
2023/11/22 03:24:11;;;;;;;13.10;5.90;;;;;;;-10.02;100.00;100663.14;109398;1251;72763;-54
2023/11/22 03:26:39;;;;;;;12.80;6.90;;;;;;;-10.07;100.00;100662.58;109423;1253;59090;-55
2023/11/22 03:29:07;;;;;;;11.70;5.70;;;;;;;-10.08;100.00;100664.44;109411;1250;60240;-54
2023/11/22 03:31:35;;;;;;;11.60;6.90;;;;;;;-10.07;100.00;100660.23;109465;1251;74790;-54
2023/11/22 03:34:04;;;;;;;11.80;6.30;;;;;;;-10.03;100.00;100652.38;109383;1251;65631;-55
2023/11/22 03:36:32;;;;;;;10.50;6.30;;;;;;;-9.97;100.00;100642.30;109257;1251;71452;-54
2023/11/22 03:39:00;;;;;;;15.00;6.00;;;;;;;-9.90;100.00;100644.95;109428;1251;59695;-54
2023/11/22 03:41:27;;;;;;;10.10;5.50;;;;;;;-9.81;100.00;100639.14;109428;1251;59527;-54
2023/11/22 03:43:55;;;;;;;12.30;5.80;;;;;;;-9.73;100.00;100635.21;109376;1251;73850;-54
2023/11/22 03:46:23;;;;;;;13.80;6.00;;;;;;;-9.65;100.00;100634.13;109437;1251;66870;-54
2023/11/22 03:48:51;;;;;;;11.30;6.70;;;;;;;-9.57;100.00;100637.94;109430;1251;71541;-54
2023/11/22 03:51:18;;;;;;;10.80;6.20;;;;;;;-9.50;100.00;100638.23;109400;1251;60849;-54
2023/11/22 03:53:46;;;;;;;10.50;5.90;;;;;;;-9.43;100.00;100642.71;109397;1251;60099;-56
2023/11/22 03:56:13;;;;;;;13.20;7.40;;;;;;;-9.37;100.00;100645.08;109439;1251;73719;-54
2023/11/22 03:58:41;;;;;;;13.80;7.30;;;;;;;-9.35;100.00;100643.17;109421;1251;65786;-53
2023/11/22 04:01:08;;;;;;;13.10;7.40;;;;;;;-9.36;100.00;100642.32;109422;1251;72759;-54
2023/11/22 04:03:37;;;;;;;14.20;8.30;;;;;;;-9.38;100.00;100637.88;109396;1251;60126;-55
2023/11/22 04:06:05;;;;;;;12.00;6.80;;;;;;;-9.43;100.00;100637.33;109398;1250;60130;-54
2023/11/22 04:08:32;;;;;;;14.50;8.40;;;;;;;-9.49;100.00;100645.77;109409;1251;74772;-54
2023/11/22 04:11:01;;;;;;;17.30;8.80;;;;;;;-9.55;100.00;100640.07;109431;1250;65668;-54
2023/11/22 04:13:30;;;;;;;13.20;7.40;;;;;;;-9.60;100.00;100640.56;109398;1250;72210;-56
2023/11/22 04:15:58;;;;;;;12.10;6.30;;;;;;;-9.62;100.00;100646.33;109401;1251;59627;-54
2023/11/22 04:18:27;;;;;;;10.40;6.30;;;;;;;-9.57;100.00;100643.65;109391;1251;58848;-54
2023/11/22 04:20:55;;;;;;;9.30;5.60;;;;;;;-9.47;100.00;100644.54;109387;1251;72833;-54
2023/11/22 04:23:22;;;;;;;15.40;6.10;;;;;;;-9.37;100.00;100643.88;109430;1251;67255;-55
2023/11/22 04:25:50;;;;;;;10.40;5.80;;;;;;;-9.26;100.00;100648.25;109414;1251;71383;-54
2023/11/22 04:28:18;;;;;;;13.90;5.90;;;;;;;-9.17;100.00;100652.02;109368;1251;61149;-54
2023/11/22 04:30:45;;;;;;;12.60;6.40;;;;;;;-9.09;100.00;100647.38;109424;1251;60517;-55
2023/11/22 04:33:13;;;;;;;11.60;6.70;;;;;;;-9.02;100.00;100644.83;109479;1251;73446;-56
2023/11/22 04:35:41;;;;;;;13.40;6.40;;;;;;;-8.93;100.00;100640.31;109455;1253;67713;-54
2023/11/22 04:38:09;;;;;;;10.70;6.40;;;;;;;-8.85;100.00;100643.91;109404;1251;72845;-54
2023/11/22 04:40:37;;;;;;;13.00;6.80;;;;;;;-8.78;100.00;100648.41;109408;1256;59334;-55
2023/11/22 04:43:04;;;;;;;10.30;5.60;;;;;;;-8.73;100.00;100652.77;109413;1251;58935;-54
2023/11/22 04:45:32;;;;;;;10.50;5.60;;;;;;;-8.68;100.00;100658.51;109364;1251;73374;-55
2023/11/22 04:48:00;;;;;;;13.10;7.00;;;;;;;-8.63;100.00;100662.20;109474;1250;66986;-54
2023/11/22 04:50:28;;;;;;;13.30;7.50;;;;;;;-8.56;100.00;100672.11;109368;1251;71451;-56
2023/11/22 04:52:55;;;;;;;15.10;8.20;;;;;;;-8.50;100.00;100680.65;109384;1251;60474;-54
2023/11/22 04:55:23;;;;;;;13.40;8.10;;;;;;;-8.43;100.00;100690.38;109412;1251;60193;-55
2023/11/22 04:57:51;;;;;;;17.80;10.60;;;;;;;-8.36;100.00;100695.01;109397;1251;74715;-55
2023/11/22 05:00:19;;;;;;;14.50;8.70;;;;;;;-8.28;100.00;100690.67;109391;1251;65787;-54
2023/11/22 05:02:47;;;;;;;13.50;7.80;;;;;;;-8.20;100.00;100688.36;109378;1251;72753;-54
2023/11/22 05:05:14;;;;;;;17.80;9.50;;;;;;;-8.11;100.00;100684.50;109397;1251;61448;-55
2023/11/22 05:07:44;;;;;;;14.20;8.80;;;;;;;-8.01;100.00;100691.09;109417;1251;60106;-54
2023/11/22 05:10:12;;;;;;;12.50;7.40;;;;;;;-7.93;100.00;100691.79;109456;1251;73429;-54
2023/11/22 05:12:40;;;;;;;15.70;8.70;;;;;;;-7.87;100.00;100695.81;109393;1250;65692;-54
2023/11/22 05:15:08;;;;;;;10.10;6.20;;;;;;;-7.79;100.00;100698.39;109370;1251;73143;-54
2023/11/22 05:17:35;;;;;;;12.20;7.10;;;;;;;-7.74;100.00;100700.03;109417;1251;59672;-55
2023/11/22 05:20:05;;;;;;;12.50;7.10;;;;;;;-7.68;100.00;100700.86;109427;1251;60166;-54
2023/11/22 05:22:32;;;;;;;12.30;7.20;;;;;;;-7.63;100.00;100706.05;109462;1251;74718;-54
2023/11/22 05:25:00;;;;;;;13.60;7.10;;;;;;;-7.57;100.00;100701.14;109348;1251;65705;-54
2023/11/22 05:27:28;;;;;;;12.60;7.50;;;;;;;-7.54;100.00;100699.34;109386;1251;72775;-57
2023/11/22 05:29:56;;;;;;;15.50;7.70;;;;;;;-7.51;100.00;100698.38;109422;1251;59598;-54
2023/11/22 05:32:24;;;;;;;14.50;8.50;;;;;;;-7.48;100.00;100702.16;109359;1251;58879;-57
2023/11/22 05:34:51;;;;;;;14.80;7.90;;;;;;;-7.48;100.00;100702.65;109388;1251;74698;-60
2023/11/22 05:37:20;;;;;;;11.80;7.30;;;;;;;-7.43;100.00;100700.44;109405;1250;65637;-59
2023/11/22 05:39:48;;;;;;;17.90;10.00;;;;;;;-7.37;100.00;100700.03;109433;1251;72181;-55
2023/11/22 05:42:17;;;;;;;16.80;8.90;;;;;;;-7.30;100.00;100698.42;109417;1251;61101;-57
2023/11/22 05:44:45;;;;;;;16.30;8.30;;;;;;;-7.24;100.00;100698.52;109412;1251;60099;-60
2023/11/22 05:47:13;;;;;;;16.80;9.40;;;;;;;-7.16;100.00;100704.80;109363;1251;74712;-59
2023/11/22 05:49:41;;;;;;;12.90;7.60;;;;;;;-7.08;100.00;100705.19;109212;1251;221132;-58
2023/11/22 05:52:08;;;;;;;15.60;8.30;;;;;;;-7.04;100.00;100705.86;109395;1251;72704;-55
2023/11/22 05:54:36;;;;;;;14.10;9.10;;;;;;;-7.00;100.00;100708.23;109406;1251;60924;-56
2023/11/22 05:57:04;;;;;;;14.10;8.30;;;;;;;-6.96;100.00;100708.26;109388;1251;58930;-57
2023/11/22 05:59:32;;;;;;;18.00;9.30;;;;;;;-6.89;100.00;100700.53;109446;1250;75207;-58
2023/11/22 06:02:00;;;;;;;15.20;9.10;;;;;;;-6.79;100.00;100703.52;109397;1251;66970;-56
2023/11/22 06:04:27;;;;;;;14.60;8.20;;;;;;;-6.69;100.00;100698.91;109385;1251;72698;-58
2023/11/22 06:06:55;;;;;;;15.20;9.20;;;;;;;-6.57;100.00;100704.48;109335;1252;61017;-55
2023/11/22 06:09:23;;;;;;;12.10;7.50;;;;;;;-6.44;100.00;100699.39;109410;1251;59323;-56
2023/11/22 06:11:50;;;;;;;14.20;8.00;;;;;;;-6.30;100.00;100697.27;109412;1251;74751;-56
2023/11/22 06:14:19;;;;;;;14.50;8.30;;;;;;;-6.19;100.00;100688.16;109418;1250;65478;-56
2023/11/22 06:16:47;;;;;;;18.30;12.50;;;;;;;-6.07;100.00;100681.75;109385;1252;71441;-58
2023/11/22 06:19:14;;;;;;;17.90;12.10;;;;;;;-5.95;100.00;100677.15;109350;1250;58910;-56
2023/11/22 06:21:42;;;;;;;20.00;12.20;;;;;;;-5.83;100.00;100677.95;109376;1251;59478;-56
2023/11/22 06:24:11;;;;;;;22.60;13.90;;;;;;;-5.72;100.00;100676.93;109462;1251;74696;-59
2023/11/22 06:26:39;;;;;;;18.70;11.80;;;;;;;-5.66;100.00;100679.38;109375;1251;66308;-58
2023/11/22 06:29:08;;;;;;;20.50;12.40;;;;;;;-5.66;100.00;100676.48;109363;1251;72038;-60
2023/11/22 06:31:36;;;;;;;20.10;12.10;;;;;;;-5.69;100.00;100683.40;109334;1251;60107;-60
2023/11/22 06:34:03;;;;;;;18.90;11.80;;;;;;;-5.75;100.00;100690.30;109380;1251;60114;-61
2023/11/22 06:36:31;;;;;;;19.50;12.10;;;;;;;-5.81;100.00;100689.55;109346;1251;74703;-61
2023/11/22 06:38:59;;;;;;;18.20;10.80;;;;;;;-5.72;100.00;100690.14;109386;1251;65835;-60
2023/11/22 06:41:28;;;;;;;20.20;11.90;;;;;;;-5.47;100.00;100685.80;109400;1251;71259;-60
2023/11/22 06:43:56;;;;;;;20.30;10.90;;;;;;;-4.95;100.00;100690.84;109417;1251;59054;-57
2023/11/22 06:46:24;;;;;;;15.90;9.90;;;;;;;-4.31;100.00;100689.70;109392;1251;60126;-59
2023/11/22 06:48:51;;;;;;;15.10;9.70;;;;;;;-3.70;100.00;100685.36;109390;1251;73705;-56
2023/11/22 06:51:19;;;;;;;14.00;9.10;;;;;;;-3.12;100.00;100680.90;109415;1250;65854;-58
2023/11/22 06:53:47;;;;;;;13.60;9.30;;;;;;;-2.56;100.00;100677.71;109379;1251;74888;-58
2023/11/22 06:56:14;;;;;;;14.10;9.80;;;;;;;-1.99;100.00;100669.89;109391;1251;58877;-60
2023/11/22 06:58:42;;;;;;;15.10;9.50;;;;;;;-1.18;100.00;100670.17;109352;1251;60062;-57
2023/11/22 07:01:10;;;;;;;15.70;9.60;;;;;;;-0.30;100.00;100665.30;109424;1251;73479;-59
2023/11/22 07:03:40;;;;;;;15.00;9.00;;;;;;;0.33;100.00;100653.30;109416;1251;66966;-58
2023/11/22 07:06:08;;;;;;;13.80;8.70;;;;;;;0.53;100.00;100646.58;109371;1251;72747;-60
2023/11/22 07:08:36;;;;;;;13.80;9.80;;;;;;;0.27;100.00;100644.64;109378;1251;59455;-58
2023/11/22 07:11:03;;;;;;;13.90;9.30;;;;;;;-0.10;100.00;100645.86;109444;1251;59349;-59
2023/11/22 07:13:31;;;;;;;13.40;9.40;;;;;;;0.06;100.00;100640.80;109466;1250;73753;-55
2023/11/22 07:16:00;;;;;;;10.40;7.20;;;;;;;0.77;100.00;100640.91;109429;1251;66977;-58
2023/11/22 07:18:27;;;;;;;12.20;9.20;;;;;;;1.55;100.00;100641.16;109399;1251;71650;-55
2023/11/22 07:20:55;;;;;;;10.40;7.80;;;;;;;2.29;100.00;100639.59;109379;1251;58946;-59
2023/11/22 07:23:27;;;;;;;12.10;9.20;;;;;;;3.11;100.00;100642.65;109453;1251;60044;-58
2023/11/22 07:25:54;;;;;;;;;;;;;;;3.92;100.00;100632.09;109442;1251;73424;-60
2023/11/22 07:28:22;;;;;;;11.20;7.50;;;;;;;4.51;100.00;100632.02;109414;1251;67415;-59
2023/11/22 07:30:51;;;;;;;10.40;7.30;;;;;;;4.96;100.00;100632.29;109420;1252;71258;-58
2023/11/22 07:33:20;;;;;;;10.00;7.00;;;;;;;5.31;100.00;100631.23;109443;1251;59062;-55
2023/11/22 07:35:48;;;;;;;10.10;7.70;;;;;;;5.46;100.00;100635.67;109436;1251;60029;-58
2023/11/22 07:38:17;;;;;;;12.30;8.10;;;;;;;5.59;100.00;100636.95;109359;1251;75376;-60
2023/11/22 07:40:45;;;;;;;17.30;11.90;;;;;;;5.85;100.00;100634.73;109424;1251;65816;-58
2023/11/22 07:43:12;;;;;;;16.40;12.60;;;;;;;6.22;100.00;100629.88;109400;1251;72672;-57
2023/11/22 07:45:40;;;;;;;18.00;13.30;;;;;;;6.41;100.00;100627.73;109342;1252;59433;-60
2023/11/22 07:48:11;;;;;;;16.50;13.20;;;;;;;6.47;100.00;100625.91;109417;1250;59593;-57
2023/11/22 07:50:39;;;;;;;18.90;13.00;;;;;;;6.61;100.00;100624.25;109485;1251;74724;-58
2023/11/22 07:53:08;;;;;;;16.70;13.50;;;;;;;6.67;100.00;100628.73;109461;1250;66954;-59
2023/11/22 07:55:37;;;;;;;16.30;12.70;;;;;;;6.62;100.00;100632.10;109423;1250;72723;-62
2023/11/22 07:58:08;;;;;;;17.40;12.70;;;;;;;6.60;100.00;100627.16;109352;1251;59526;-57
2023/11/22 08:00:37;;;;;;;16.00;13.10;;;;;;;6.65;100.00;100623.87;109392;1251;59442;-58
2023/11/22 08:03:06;;;;;;;17.30;13.40;;;;;;;6.68;100.00;100621.14;109458;1251;74724;-57
2023/11/22 08:05:36;;;;;;;15.80;13.60;;;;;;;6.67;100.00;100627.98;109175;1250;67755;-59
2023/11/22 08:08:07;;;;;;;15.00;11.50;;;;;;;6.69;100.00;100630.34;109424;1251;72886;-58
2023/11/22 08:10:35;;;;;;;14.60;11.00;;;;;;;6.66;100.00;100626.02;109418;1250;59058;-58
2023/11/22 08:13:03;;;;;;;12.70;9.80;;;;;;;6.68;100.00;100625.35;109445;1250;58926;-60
2023/11/22 08:15:31;;;;;;;11.10;8.70;;;;;;;6.80;100.00;100623.96;109287;1251;73494;-61
2023/11/22 08:18:02;;;;;;;11.50;8.20;;;;;;;6.94;100.00;100619.34;109475;1250;66707;-59
2023/11/22 08:20:30;;;;;;;12.40;9.30;;;;;;;6.97;100.00;100620.95;109409;1250;71403;-59
2023/11/22 08:22:58;;;;;;;14.30;10.80;;;;;;;6.91;100.00;100617.86;109399;1251;59325;-59
2023/11/22 08:25:26;;;;;;;15.60;12.00;;;;;;;6.96;100.00;100614.08;109428;1251;59019;-58
2023/11/22 08:27:54;;;;;;;16.60;12.10;;;;;;;7.19;100.00;100613.08;109353;1251;74292;-60
2023/11/22 08:30:21;;;;;;;15.30;11.60;;;;;;;7.34;100.00;100615.31;109459;1250;67094;-57
2023/11/22 08:32:53;;;;;;;11.90;10.10;;;;;;;7.43;100.00;100608.75;109433;1251;72708;-60
2023/11/22 08:35:23;;;;;;;14.20;10.50;;;;;;;7.41;100.00;100600.51;109406;1251;60143;-59
2023/11/22 08:37:51;;;;;;;12.70;8.90;;;;;;;7.39;100.00;100594.85;109401;1250;62814;-57
2023/11/22 08:40:20;;;;;;;13.70;8.70;;;;;;;7.39;100.00;100592.39;109441;1251;74759;-58
2023/11/22 08:42:49;;;;;;;10.90;7.20;;;;;;;7.33;100.00;100593.70;109439;1250;67491;-58
2023/11/22 08:45:17;;;;;;;9.70;6.90;;;;;;;7.27;100.00;100595.60;109397;1251;72730;-61
2023/11/22 08:47:45;;;;;;;10.00;6.80;;;;;;;7.22;100.00;100597.68;109422;1251;60115;-58
2023/11/22 08:50:15;;;;;;;8.80;6.10;;;;;;;7.15;100.00;100599.80;109453;1250;60176;-59
2023/11/22 08:52:44;;;;;;;8.50;6.30;;;;;;;6.94;100.00;100598.36;109465;1251;74017;-61
2023/11/22 08:55:14;;;;;;;9.50;6.60;;;;;;;6.69;100.00;100597.71;109371;1251;67165;-59
2023/11/22 08:57:42;;;;;;;8.40;6.10;;;;;;;6.57;100.00;100595.77;109417;1250;72394;-61
2023/11/22 09:00:11;;;;;;;8.90;5.90;;;;;;;6.45;100.00;100590.73;109382;1251;60116;-59
2023/11/22 09:02:39;;;;;;;8.40;5.90;;;;;;;6.26;100.00;100593.76;109453;1250;58916;-59
2023/11/22 09:05:08;;;;;;;8.00;5.40;;;;;;;6.10;100.00;100595.85;109428;1250;76732;-61
2023/11/22 09:07:37;;;;;;;7.80;5.70;;;;;;;6.03;100.00;100593.24;109475;1250;67094;-60
2023/11/22 09:10:09;;;;;;;9.60;6.70;;;;;;;5.88;100.00;100595.27;109476;1252;70892;-60
2023/11/22 09:12:42;;;;;;;8.90;6.10;;;;;;;5.73;100.00;100595.11;109358;1252;60208;-58
2023/11/22 09:15:11;;;;;;;9.70;6.40;;;;;;;5.76;100.00;100592.59;109458;1250;59182;-58
2023/11/22 09:17:43;;;;;;;8.90;5.90;;;;;;;5.87;100.00;100592.77;109438;1251;75624;-59
2023/11/22 09:20:15;;;;;;;8.60;6.00;;;;;;;6.06;100.00;100588.42;109408;1251;67441;-64
2023/11/22 09:22:54;;;;;;;8.50;5.60;;;;;;;6.11;100.00;100586.38;109429;1250;71441;-61
2023/11/22 09:25:25;;;;;;;8.30;5.90;;;;;;;6.02;100.00;100585.35;109426;1250;58930;-59
2023/11/22 09:27:58;;;;;;;;;;;;;;;5.78;100.00;100590.41;109461;1251;59021;-59
2023/11/22 09:30:42;;;;;;;9.30;6.00;;;;;;;5.52;100.00;100590.47;109430;1251;78012;-60
2023/11/22 09:33:14;;;;;;;8.70;6.00;;;;;;;5.24;100.00;100579.70;109454;1250;68341;-59
2023/11/22 09:35:46;;;;;;;7.90;5.40;;;;;;;4.94;100.00;100582.27;109353;1250;72677;-59
2023/11/22 09:38:15;;;;;;;8.50;5.90;;;;;;;4.80;100.00;100586.24;109431;1250;59570;-61
2023/11/22 09:40:45;;;;;;;7.30;5.40;;;;;;;4.93;100.00;100577.84;109384;1250;59014;-61
2023/11/22 09:43:17;;;;;;;8.70;5.50;;;;;;;4.99;100.00;100570.58;109508;1250;73372;-61
2023/11/22 09:45:50;;;;;;;7.80;5.60;;;;;;;4.81;100.00;100567.21;109430;1250;66922;-61
2023/11/22 09:48:24;;;;;;;7.80;5.30;;;;;;;4.55;100.00;100570.52;109430;1251;74595;-62
2023/11/22 09:51:09;;;;;;;10.90;6.20;;;;;;;4.35;100.00;100563.38;109432;1252;59620;-64
2023/11/22 09:53:49;;;;;;;8.00;5.50;;;;;;;4.09;100.00;100565.65;109407;1251;59422;-62
2023/11/22 09:56:18;;;;;;;9.70;5.80;;;;;;;3.75;100.00;100576.20;109301;1251;76679;-58
2023/11/22 09:58:46;;;;;;;17.00;8.20;;;;;;;3.52;100.00;100570.51;109406;1251;68848;-59
2023/11/22 10:01:14;;;;;;;12.70;7.00;;;;;;;3.40;100.00;100578.42;109294;1251;72117;-59
2023/11/22 10:03:42;;;;;;;8.30;5.80;;;;;;;3.29;100.00;100583.10;109423;1251;59175;-57
2023/11/22 10:06:10;;;;;;;9.80;6.20;;;;;;;3.35;100.00;100588.14;109476;1250;58901;-61
2023/11/22 10:08:38;;;;;;;9.60;5.40;;;;;;;3.70;100.00;100591.52;109437;1251;73448;-60
2023/11/22 10:11:06;;;;;;;7.40;5.20;;;;;;;4.32;100.00;100584.63;109391;1251;67606;-58
2023/11/22 10:13:34;;;;;;;7.10;4.70;;;;;;;4.89;100.00;100579.08;109472;1251;73467;-58
2023/11/22 10:16:18;;;;;;;7.50;5.40;;;;;;;5.16;100.00;100580.40;109409;1251;59268;-61
2023/11/22 10:18:46;;;;;;;8.70;5.40;;;;;;;5.11;100.00;100581.22;109392;1251;62178;-64
2023/11/22 10:21:24;;;;;;;7.40;4.80;;;;;;;5.10;100.00;100582.00;109448;1251;74649;-63
2023/11/22 10:24:10;;;;;;;8.10;5.20;;;;;;;5.17;100.00;100571.17;109320;1251;68825;-59
2023/11/22 10:26:38;;;;;;;7.70;4.80;;;;;;;5.26;100.00;100561.41;109422;1252;73715;-58
2023/11/22 10:29:06;;;;;;;7.80;5.00;;;;;;;5.25;100.00;100553.02;109363;1251;59285;-60
2023/11/22 10:31:34;;;;;;;9.30;5.60;;;;;;;5.10;100.00;100547.01;109426;1251;59434;-60
2023/11/22 10:34:03;;;;;;;7.30;5.00;;;;;;;4.90;100.00;100557.11;109417;1251;76876;-61
2023/11/22 10:36:31;;;;;;;6.10;4.60;;;;;;;4.58;100.00;100554.27;109272;1251;66864;-60
2023/11/22 10:38:59;;;;;;;7.30;4.60;;;;;;;4.33;100.00;100543.98;109317;1251;73148;-60
2023/11/22 10:41:27;;;;;;;10.20;5.90;;;;;;;4.15;100.00;100526.46;109151;1251;59515;-60
2023/11/22 10:43:55;;;;;;;7.40;4.80;;;;;;;4.01;100.00;100533.38;109441;1251;60569;-61
2023/11/22 10:46:28;;;;;;;8.50;5.50;;;;;;;3.85;100.00;100524.12;109313;1251;73470;-58
2023/11/22 10:48:57;;;;;;;9.90;6.50;;;;;;;3.59;100.00;100532.50;109290;1251;69136;-60
2023/11/22 10:51:33;;;;;;;10.10;5.80;;;;;;;3.28;100.00;100542.19;109490;1250;73544;-58
2023/11/22 10:54:03;;;;;;;8.50;4.80;;;;;;;2.93;100.00;100544.41;109306;1251;59588;-60
2023/11/22 10:56:38;;;;;;;8.90;4.80;;;;;;;2.52;100.00;100560.48;109428;1250;61115;-60
2023/11/22 10:59:12;;;;;;;8.50;5.90;;;;;;;2.13;100.00;100563.03;109525;1250;74574;-60
2023/11/22 11:01:48;;;;;;;7.30;4.80;;;;;;;1.88;100.00;100556.40;109270;1251;67201;-60
2023/11/22 11:04:40;;;;;;;7.30;4.60;;;;;;;1.62;100.00;100552.80;109479;1251;73969;-60
2023/11/22 11:07:09;;;;;;;8.40;4.90;;;;;;;1.30;100.00;100553.84;109271;1251;62360;-58
2023/11/22 11:09:37;;;;;;;7.50;4.80;;;;;;;1.09;100.00;100551.14;109515;1250;59016;-58
2023/11/22 11:12:05;;;;;;;8.40;4.90;;;;;;;0.97;100.00;100549.13;109319;1250;73980;-58